Time;durP1;ratioP1;P1;durP2;ratioP2;P2;SDS_P1;SDS_P2;PMS_P1;PMS_P2;Temp;Humidity;BMP_temperature;BMP_pressure;BME280_temperature;BME280_humidity;BME280_pressure;Samples;Min_cycle;Max_cycle;Signal;HPM_P1;HPM_P2
2021/12/04 00:02:08;;;;;;;6.80;3.60;;;;;;;12.56;63.09;100692.06;5012864;28;20064;-53
2021/12/04 00:04:54;;;;;;;;;;;;;;;12.62;66.58;100698.94;5013811;28;20053;-53
2021/12/04 00:07:39;;;;;;;7.85;2.90;;;;;;;12.63;67.89;100690.44;5013147;28;19914;-53
2021/12/04 00:10:28;;;;;;;9.63;2.85;;;;;;;12.65;68.13;100701.00;5012964;28;20060;-53
2021/12/04 00:13:13;;;;;;;8.30;3.20;;;;;;;12.63;63.85;100693.16;5018600;28;20048;-53
2021/12/04 00:15:57;;;;;;;6.68;3.47;;;;;;;12.63;63.95;100695.09;5012986;28;20057;-54
2021/12/04 00:18:42;;;;;;;5.53;3.35;;;;;;;12.53;57.08;100687.28;5012827;28;20516;-54
2021/12/04 00:21:27;;;;;;;6.22;3.28;;;;;;;12.48;55.88;100688.25;5012647;28;20049;-53
2021/12/04 00:24:13;;;;;;;8.30;4.35;;;;;;;12.56;57.66;100683.88;5012800;28;20408;-53
2021/12/04 00:26:57;;;;;;;;;;;;;;;12.53;54.83;100690.00;5019780;28;20053;-54
2021/12/04 00:29:42;;;;;;;11.40;6.47;;;;;;;12.48;53.12;100682.00;5012628;28;20289;-54
2021/12/04 00:32:31;;;;;;;;;;;;;;;12.38;55.16;100672.28;5013241;28;20068;-53
2021/12/04 00:35:32;;;;;;;8.35;4.05;;;;;;;12.32;55.17;100670.84;5012595;28;20361;-53
2021/12/04 00:50:21;;;;;;;9.55;4.57;;;;;;;12.43;56.05;100666.63;5012312;28;20049;-53
2021/12/04 00:53:06;;;;;;;6.13;3.47;;;;;;;12.36;56.03;100667.13;5012569;28;20061;-53
2021/12/04 00:55:51;;;;;;;8.43;4.65;;;;;;;12.31;55.70;100672.78;5012263;28;20417;-54
2021/12/04 00:58:36;;;;;;;9.45;3.40;;;;;;;12.33;55.03;100667.81;5012688;28;20115;-53
2021/12/04 01:01:21;;;;;;;9.40;4.80;;;;;;;12.35;55.27;100662.81;5012119;28;20413;-53
2021/12/04 01:04:11;;;;;;;5.50;2.95;;;;;;;12.41;56.94;100660.69;5012406;28;20061;-53
2021/12/04 01:06:56;;;;;;;7.43;3.97;;;;;;;12.31;55.42;100674.69;5012453;28;20432;-53
2021/12/04 01:09:42;;;;;;;;;;;;;;;12.37;57.06;100671.47;5016418;28;20048;-53
2021/12/04 01:12:27;;;;;;;;;;;;;;;12.31;54.62;100669.25;5016684;28;19950;-53
2021/12/04 01:15:12;;;;;;;5.22;3.47;;;;;;;12.36;56.36;100663.59;5016380;28;19918;-53
2021/12/04 01:17:56;;;;;;;7.40;3.05;;;;;;;12.43;58.90;100658.44;5022082;28;20052;-53
2021/12/04 01:20:42;;;;;;;6.82;3.50;;;;;;;12.38;58.41;100662.16;5016341;28;20041;-53
2021/12/04 01:23:26;;;;;;;5.00;2.72;;;;;;;12.35;57.71;100660.06;5016187;28;20512;-53
2021/12/04 01:26:11;;;;;;;6.18;3.42;;;;;;;12.36;57.54;100653.50;5019303;28;20060;-54
2021/12/04 01:28:56;;;;;;;;;;;;;;;12.28;55.45;100645.38;5016328;28;20511;-53
2021/12/04 01:31:41;;;;;;;10.80;4.82;;;;;;;12.30;54.13;100634.91;5015827;28;19913;-53
2021/12/04 01:34:26;;;;;;;7.20;4.05;;;;;;;12.30;55.45;100632.19;5016049;28;20412;-53
2021/12/04 01:37:11;;;;;;;8.23;3.90;;;;;;;12.22;54.73;100633.84;5015806;28;20053;-53
2021/12/04 01:39:56;;;;;;;10.25;5.00;;;;;;;12.30;57.13;100633.00;5015966;28;20053;-53
2021/12/04 01:42:41;;;;;;;5.32;2.70;;;;;;;12.32;57.78;100630.75;5015867;28;20056;-53
2021/12/04 01:45:27;;;;;;;;;;;;;;;12.39;60.29;100630.25;5016157;28;20052;-53
2021/12/04 01:48:12;;;;;;;6.78;3.70;;;;;;;12.40;60.72;100620.91;5015651;28;19913;-53
2021/12/04 01:50:57;;;;;;;8.57;2.67;;;;;;;12.42;63.20;100613.22;5015753;28;20180;-53
2021/12/04 01:53:41;;;;;;;;;;;;;;;12.41;63.21;100600.69;5016221;28;20056;-53
2021/12/04 01:56:30;;;;;;;7.60;3.20;;;;;;;12.37;59.79;100602.50;5015544;28;19914;-53
2021/12/04 01:59:15;;;;;;;7.03;4.20;;;;;;;12.34;59.91;100594.97;5015506;28;20061;-53
2021/12/04 02:02:02;;;;;;;6.72;3.63;;;;;;;12.32;58.75;100595.31;5015515;28;20041;-53
2021/12/04 02:04:47;;;;;;;5.60;2.92;;;;;;;12.38;62.40;100595.91;5015578;28;20064;-53
2021/12/04 02:07:32;;;;;;;;;;;;;;;12.41;65.79;100597.97;5015854;28;20049;-53
2021/12/04 02:10:17;;;;;;;5.38;2.28;;;;;;;12.43;66.87;100595.72;5015423;28;19917;-53
2021/12/04 02:13:02;;;;;;;5.85;2.72;;;;;;;12.47;67.44;100587.66;5014978;28;20072;-53
2021/12/04 02:15:47;;;;;;;4.82;2.70;;;;;;;12.48;66.89;100573.72;5015188;28;20133;-53
2021/12/04 02:18:32;;;;;;;4.47;2.38;;;;;;;12.50;67.75;100587.00;5013889;28;20053;-53
2021/12/04 02:21:17;;;;;;;4.68;3.45;;;;;;;12.52;67.93;100571.13;5015211;28;20409;-53
2021/12/04 02:24:03;;;;;;;3.53;2.20;;;;;;;12.51;67.44;100570.31;5015078;28;20070;-53
2021/12/04 02:26:49;;;;;;;4.35;2.47;;;;;;;12.52;68.26;100571.91;5014777;28;20052;-53
2021/12/04 02:29:34;;;;;;;8.05;2.67;;;;;;;12.51;68.01;100567.59;5014738;28;20068;-53
2021/12/04 02:32:20;;;;;;;;;;;;;;;12.50;68.27;100559.72;5015185;28;20516;-53
2021/12/04 02:35:06;;;;;;;4.60;2.78;;;;;;;12.51;68.43;100553.94;5014822;28;19917;-53
2021/12/04 02:37:52;;;;;;;5.97;3.28;;;;;;;12.50;67.22;100540.63;5014598;28;20057;-53
2021/12/04 02:40:37;;;;;;;5.05;3.50;;;;;;;12.45;65.95;100522.53;5014732;28;20053;-53
2021/12/04 02:43:23;;;;;;;10.75;4.68;;;;;;;12.39;63.15;100534.81;5014561;28;20068;-53
2021/12/04 02:46:08;;;;;;;9.25;5.43;;;;;;;12.29;58.87;100519.59;5014731;28;20053;-53
2021/12/04 02:48:53;;;;;;;7.28;3.55;;;;;;;12.37;64.90;100521.50;5014372;28;20049;-53
2021/12/04 02:51:38;;;;;;;8.05;4.13;;;;;;;12.30;59.85;100509.50;5014561;28;20048;-53
2021/12/04 02:54:23;;;;;;;7.57;4.43;;;;;;;12.25;60.26;100504.25;5014491;28;20052;-53
2021/12/04 02:57:11;;;;;;;6.70;3.30;;;;;;;12.25;60.61;100501.50;5014337;28;20719;-53
2021/12/04 02:59:56;;;;;;;6.63;3.40;;;;;;;12.23;61.62;100490.97;4994902;28;20046;-53
2021/12/04 03:02:41;;;;;;;4.28;1.98;;;;;;;12.28;65.01;100496.22;4994922;28;20049;-53
2021/12/04 03:05:29;;;;;;;4.22;2.15;;;;;;;12.33;66.79;100506.13;4994650;28;20413;-53
2021/12/04 03:08:14;;;;;;;7.15;3.13;;;;;;;12.38;67.50;100497.75;5002417;28;20067;-53
2021/12/04 03:10:58;;;;;;;2.50;1.67;;;;;;;12.42;68.09;100504.13;5014483;28;20524;-53
2021/12/04 03:13:43;;;;;;;3.80;2.28;;;;;;;12.44;67.72;100501.88;5014312;28;20065;-53
2021/12/04 03:16:28;;;;;;;3.70;1.95;;;;;;;12.45;67.90;100498.00;5013986;28;20052;-53
2021/12/04 03:19:13;;;;;;;5.93;2.33;;;;;;;12.46;68.44;100498.78;5013864;28;20057;-53
2021/12/04 03:21:59;;;;;;;4.65;2.20;;;;;;;12.41;66.20;100492.41;5013017;28;20049;-53
2021/12/04 03:24:44;;;;;;;5.32;2.40;;;;;;;12.38;66.10;100498.53;5014012;28;20409;-53
2021/12/04 03:27:31;;;;;;;6.20;3.45;;;;;;;12.36;67.03;100502.72;5013784;28;20056;-53
2021/12/04 03:42:21;;;;;;;4.13;2.50;;;;;;;12.35;67.46;100506.56;5013360;28;20100;-53
2021/12/04 03:45:08;;;;;;;4.82;2.70;;;;;;;12.31;65.89;100511.09;5013651;28;20045;-53
2021/12/04 03:48:02;;;;;;;5.53;2.70;;;;;;;12.28;66.30;100504.41;5016539;28;20061;-53
2021/12/04 03:50:47;;;;;;;6.22;3.08;;;;;;;12.18;60.51;100510.25;5013294;28;20041;-53
2021/12/04 03:53:33;;;;;;;;;;;;;;;12.08;56.32;100488.81;5020554;28;20401;-53
2021/12/04 03:56:22;;;;;;;3.83;2.65;;;;;;;12.01;53.62;100472.19;5013280;28;19913;-53
2021/12/04 03:59:07;;;;;;;4.20;2.35;;;;;;;12.00;55.89;100471.38;5013257;28;20049;-53
2021/12/04 04:01:52;;;;;;;3.05;2.50;;;;;;;11.97;55.64;100465.81;5014638;28;20052;-53
2021/12/04 04:04:37;;;;;;;4.20;2.40;;;;;;;11.94;56.01;100455.53;5013243;28;20057;-53
2021/12/04 04:07:22;;;;;;;3.75;2.55;;;;;;;11.99;59.81;100455.34;5012953;28;20045;-53
2021/12/04 04:10:09;;;;;;;2.17;1.50;;;;;;;12.03;64.75;100450.06;5013046;28;20402;-53
2021/12/04 04:12:54;;;;;;;4.30;2.33;;;;;;;12.06;65.64;100452.09;5025210;28;20060;-53
2021/12/04 04:15:40;;;;;;;2.35;1.63;;;;;;;12.05;65.77;100450.50;5032733;28;20056;-53
2021/12/04 04:18:25;;;;;;;3.30;2.30;;;;;;;12.02;62.68;100451.19;5014996;28;20141;-53
2021/12/04 04:21:11;;;;;;;2.75;1.58;;;;;;;12.00;63.60;100443.31;5016911;28;20047;-53
2021/12/04 04:23:56;;;;;;;3.33;1.92;;;;;;;12.00;64.84;100444.13;5014751;28;20417;-53
2021/12/04 04:26:43;;;;;;;4.13;2.30;;;;;;;11.99;62.75;100434.34;5012472;28;20440;-53
2021/12/04 04:29:28;;;;;;;4.93;2.63;;;;;;;11.96;63.44;100432.28;5012704;28;20047;-53
2021/12/04 04:32:13;;;;;;;5.75;2.40;;;;;;;11.94;63.17;100445.44;5012768;28;20109;-53
2021/12/04 04:35:07;;;;;;;1.95;1.48;;;;;;;11.97;65.22;100435.81;5012644;28;20048;-53
2021/12/04 05:13:32;;;;;;;4.15;2.42;;;;;;;11.98;66.57;100405.53;5012588;28;20061;-53
2021/12/04 05:16:19;;;;;;;;;;;;;;;11.99;68.24;100409.81;5012771;28;20401;-53
2021/12/04 05:19:12;;;;;;;3.85;1.70;;;;;;;11.98;68.35;100405.53;5035413;23;19921;-56
2021/12/04 05:21:57;;;;;;;3.40;1.80;;;;;;;11.98;68.06;100412.91;5044238;28;20514;-57
2021/12/04 05:24:42;;;;;;;2.30;1.50;;;;;;;11.94;68.33;100412.75;5047099;28;20112;-57
2021/12/04 05:27:27;;;;;;;2.03;1.27;;;;;;;11.92;67.27;100406.03;5051409;28;20048;-56
2021/12/04 05:30:12;;;;;;;5.05;2.25;;;;;;;11.89;66.70;100415.66;5038010;28;20052;-56
2021/12/04 05:32:57;;;;;;;;;;;;;;;11.85;64.33;100412.00;5031189;28;20048;-57
2021/12/04 05:35:45;;;;;;;5.65;2.60;;;;;;;11.82;62.72;100420.84;5033825;28;19913;-57
2021/12/04 05:38:30;;;;;;;4.05;2.75;;;;;;;11.80;61.64;100406.75;5028218;28;20048;-57
2021/12/04 05:41:16;;;;;;;;;;;;;;;11.81;63.46;100400.19;5031669;28;20040;-56
2021/12/04 05:44:05;;;;;;;3.50;1.98;;;;;;;11.78;64.34;100413.69;5029928;28;19913;-56
2021/12/04 05:46:59;;;;;;;10.25;3.00;;;;;;;11.71;59.97;100410.63;5035763;28;20041;-57
2021/12/04 05:55:21;;;;;;;4.65;2.45;;;;;;;11.67;62.75;100413.22;5033937;28;19916;-57
2021/12/04 05:58:06;;;;;;;6.70;1.90;;;;;;;11.68;64.84;100409.38;5040544;28;20500;-58
2021/12/04 06:00:53;;;;;;;7.22;1.38;;;;;;;11.64;65.59;100407.63;5032465;28;20053;-57
2021/12/04 06:03:37;;;;;;;6.90;1.88;;;;;;;11.64;65.30;100407.63;5038473;28;20392;-57
2021/12/04 06:06:22;;;;;;;4.43;2.30;;;;;;;11.60;63.79;100418.38;5032075;28;20056;-57
2021/12/04 06:09:07;;;;;;;;;;;;;;;11.60;63.32;100410.22;5033257;28;20056;-57
2021/12/04 06:11:51;;;;;;;5.65;2.72;;;;;;;11.62;65.05;100407.19;5029715;28;19921;-57
2021/12/04 06:14:36;;;;;;;4.40;2.75;;;;;;;11.54;64.17;100411.53;5030633;28;20044;-55
2021/12/04 06:17:23;;;;;;;10.32;3.10;;;;;;;11.46;60.96;100398.78;5027276;28;20072;-55
2021/12/04 06:23:12;;;;;;;6.68;4.35;;;;;;;11.41;61.80;100407.94;5033317;28;20507;-56
2021/12/04 06:25:57;;;;;;;6.22;2.22;;;;;;;11.47;64.25;100419.44;5038142;28;20052;-55
2021/12/04 06:28:43;;;;;;;5.25;2.08;;;;;;;11.43;64.58;100416.53;5033856;28;20103;-55
2021/12/04 06:31:27;;;;;;;3.10;1.90;;;;;;;11.43;64.17;100415.75;5020701;28;20048;-55
2021/12/04 06:34:12;;;;;;;8.23;3.22;;;;;;;11.40;62.30;100406.31;5033612;28;20045;-56
2021/12/04 06:36:57;;;;;;;4.35;2.35;;;;;;;11.36;62.41;100408.13;5031382;28;20052;-55
2021/12/04 06:39:42;;;;;;;11.73;3.03;;;;;;;11.22;58.69;100404.81;5033730;28;20052;-55
2021/12/04 06:42:28;;;;;;;5.63;3.45;;;;;;;11.20;58.93;100404.34;5032738;28;20403;-55
2021/12/04 06:45:13;;;;;;;7.25;3.65;;;;;;;11.24;60.99;100401.75;5016582;28;20053;-55
2021/12/04 06:48:02;;;;;;;7.97;3.72;;;;;;;11.25;58.17;100378.84;5016735;28;20053;-55
2021/12/04 06:51:00;;;;;;;10.48;2.90;;;;;;;11.25;61.44;100379.66;5027120;28;20044;-56
2021/12/04 06:56:39;;;;;;;7.00;2.45;;;;;;;11.29;67.50;100386.03;5023868;28;20072;-55
2021/12/04 06:59:28;;;;;;;7.93;2.50;;;;;;;11.33;68.05;100389.69;5029880;28;20408;-56
2021/12/04 07:02:14;;;;;;;4.88;1.83;;;;;;;11.32;68.01;100381.88;5031645;28;20041;-55
2021/12/04 07:04:58;;;;;;;4.63;1.75;;;;;;;11.30;70.59;100376.75;5031757;28;20044;-55
2021/12/04 07:07:43;;;;;;;;;;;;;;;11.30;68.73;100373.22;5033226;28;20053;-55
2021/12/04 07:10:28;;;;;;;4.68;2.80;;;;;;;11.27;63.00;100373.91;5029232;28;20374;-55
2021/12/04 07:13:13;;;;;;;6.13;2.90;;;;;;;11.22;62.91;100364.00;5031628;28;20057;-55
2021/12/04 07:16:04;;;;;;;7.97;2.58;;;;;;;11.20;60.81;100349.09;5033281;28;20044;-55
2021/12/04 07:18:50;;;;;;;8.00;3.97;;;;;;;11.14;62.77;100354.72;5032642;28;20045;-55
2021/12/04 07:21:35;;;;;;;10.88;4.03;;;;;;;11.04;60.21;100365.97;5030923;28;20044;-55
2021/12/04 07:24:20;;;;;;;9.32;3.17;;;;;;;11.03;57.33;100364.38;5033108;28;20056;-55
2021/12/04 07:27:06;;;;;;;9.82;3.90;;;;;;;11.08;63.70;100361.47;5029592;28;20056;-55
2021/12/04 07:29:51;;;;;;;3.20;1.90;;;;;;;11.12;65.69;100348.81;5026973;28;20052;-56
2021/12/04 07:32:37;;;;;;;3.47;2.35;;;;;;;11.08;65.51;100360.69;5031084;28;20500;-56
2021/12/04 07:35:23;;;;;;;9.95;4.15;;;;;;;10.96;58.40;100355.94;5031824;28;20045;-56
2021/12/04 07:38:10;;;;;;;5.13;2.97;;;;;;;11.00;61.29;100351.44;5030263;28;20060;-56
2021/12/04 07:40:56;;;;;;;5.22;3.47;;;;;;;11.03;63.77;100355.41;5031967;28;20048;-55
2021/12/04 07:43:41;;;;;;;12.95;4.55;;;;;;;11.00;62.87;100339.75;5032594;28;20064;-55
2021/12/04 07:46:25;;;;;;;3.85;2.72;;;;;;;10.84;59.42;100327.81;5029454;28;20040;-55
2021/12/04 07:49:10;;;;;;;;;;;;;;;10.98;64.84;100336.56;5029624;28;20056;-55
2021/12/04 07:51:55;;;;;;;5.82;2.33;;;;;;;11.03;68.63;100344.53;5026384;28;19917;-55
2021/12/04 07:54:42;;;;;;;5.88;1.45;;;;;;;11.07;70.47;100346.28;5025193;28;20048;-55
2021/12/04 07:57:26;;;;;;;5.82;2.67;;;;;;;11.07;71.65;100349.00;5025111;28;20048;-55
2021/12/04 08:00:15;;;;;;;5.03;2.45;;;;;;;11.08;71.63;100341.63;5031693;28;20523;-55
2021/12/04 08:03:03;;;;;;;9.43;3.45;;;;;;;11.07;71.67;100334.63;5032530;28;20048;-56
2021/12/04 08:05:49;;;;;;;5.93;2.30;;;;;;;11.02;69.25;100327.41;5030270;28;20048;-55
2021/12/04 08:08:34;;;;;;;4.35;1.92;;;;;;;11.06;72.31;100322.13;5034638;28;20044;-55
2021/12/04 08:11:19;;;;;;;;;;;;;;;11.11;75.00;100330.09;5019926;28;20049;-55
2021/12/04 08:14:04;;;;;;;3.13;1.70;;;;;;;11.09;74.91;100330.44;5022236;28;19913;-54
2021/12/04 08:16:49;;;;;;;2.65;1.63;;;;;;;11.11;75.57;100324.66;5026210;28;20040;-54
2021/12/04 08:19:34;;;;;;;7.13;3.92;;;;;;;11.09;75.44;100327.72;5029856;28;20051;-56
2021/12/04 08:22:18;;;;;;;8.13;3.92;;;;;;;11.06;73.76;100319.41;5031890;28;20531;-55
2021/12/04 08:25:04;;;;;;;7.57;2.92;;;;;;;11.03;70.25;100315.41;5030857;28;20052;-55
2021/12/04 08:27:50;;;;;;;4.32;2.05;;;;;;;11.07;71.90;100324.50;5031669;28;20045;-55
2021/12/04 08:30:39;;;;;;;6.13;2.30;;;;;;;11.07;70.51;100335.38;5027445;28;20060;-55
2021/12/04 08:33:24;;;;;;;10.02;4.82;;;;;;;11.00;60.13;100329.69;5024796;28;20048;-55
2021/12/04 08:36:09;;;;;;;6.25;3.25;;;;;;;10.95;54.92;100329.84;5030601;28;20508;-55
2021/12/04 08:38:54;;;;;;;9.18;5.00;;;;;;;10.94;51.36;100324.75;5036289;28;20049;-55
2021/12/04 08:41:40;;;;;;;5.85;3.80;;;;;;;10.94;50.12;100320.09;5028469;28;20413;-55
2021/12/04 08:44:25;;;;;;;10.60;4.32;;;;;;;10.85;50.90;100321.25;5027273;28;20052;-55
2021/12/04 08:47:10;;;;;;;7.68;3.95;;;;;;;10.72;49.43;100323.06;5012065;28;20464;-55
2021/12/04 08:49:55;;;;;;;9.18;4.75;;;;;;;10.68;48.59;100325.63;5018623;28;20511;-54
2021/12/04 08:52:41;;;;;;;8.10;4.45;;;;;;;10.61;48.88;100319.13;5031718;28;20056;-54
2021/12/04 08:55:28;;;;;;;7.82;5.03;;;;;;;10.68;48.27;100322.13;5031261;28;20044;-55
2021/12/04 08:58:15;;;;;;;9.73;5.50;;;;;;;10.57;50.20;100318.94;5028317;28;20045;-55
2021/12/04 09:01:02;;;;;;;9.25;5.63;;;;;;;10.46;48.18;100314.22;5028117;28;20052;-55
2021/12/04 09:03:48;;;;;;;9.82;5.95;;;;;;;10.36;50.61;100318.06;5029383;28;20040;-55
2021/12/04 09:06:35;;;;;;;9.45;5.60;;;;;;;10.39;53.45;100319.34;5033666;28;20044;-55
2021/12/04 09:09:22;;;;;;;11.65;5.82;;;;;;;10.44;49.14;100294.69;5023224;28;20416;-55
2021/12/04 09:12:09;;;;;;;11.73;5.45;;;;;;;10.44;47.44;100294.69;5028436;28;20511;-57
2021/12/04 09:14:56;;;;;;;17.08;6.78;;;;;;;10.55;46.69;100293.22;5031547;28;20064;-55
2021/12/04 09:17:41;;;;;;;16.52;4.90;;;;;;;10.58;46.48;100301.53;5031606;28;20048;-56
2021/12/04 09:20:28;;;;;;;8.50;4.30;;;;;;;10.51;46.31;100311.31;5030970;28;20524;-54
2021/12/04 09:23:16;;;;;;;15.07;4.97;;;;;;;10.44;46.08;100300.13;5027778;28;20041;-54
2021/12/04 09:26:03;;;;;;;16.50;5.95;;;;;;;10.46;46.23;100298.69;5028580;28;20053;-54
2021/12/04 09:28:59;;;;;;;9.85;5.63;;;;;;;10.39;45.90;100298.38;5026997;28;20417;-54
2021/12/04 10:02:00;;;;;;;13.95;8.48;;;;;;;9.99;49.16;100223.66;5031252;28;20420;-55
2021/12/04 10:17:52;;;;;;;10.20;5.95;;;;;;;9.43;53.47;100225.47;5031143;28;20044;-54
2021/12/04 10:32:55;;;;;;;8.35;5.60;;;;;;;9.57;49.19;100181.88;5032706;28;20527;-54
2021/12/04 10:35:40;;;;;;;10.38;5.90;;;;;;;9.56;49.29;100175.66;5035280;28;20044;-54
2021/12/04 10:38:26;;;;;;;10.90;5.45;;;;;;;9.53;49.24;100170.06;5033607;28;20040;-54
2021/12/04 10:41:15;;;;;;;11.85;5.50;;;;;;;9.49;48.26;100160.97;5032083;28;20065;-55
2021/12/04 10:44:21;;;;;;;10.40;6.78;;;;;;;9.42;48.20;100158.75;5032191;28;20045;-55
2021/12/04 10:47:12;;;;;;;9.30;4.97;;;;;;;9.26;48.60;100136.72;5032505;28;20056;-55
2021/12/04 10:53:11;;;;;;;13.10;6.78;;;;;;;9.37;48.68;100134.50;5032698;28;20082;-57
2021/12/04 10:59:22;;;;;;;9.98;6.45;;;;;;;9.66;47.96;100103.94;5033191;28;20052;-56
2021/12/04 11:05:36;;;;;;;10.23;6.50;;;;;;;9.85;48.12;100088.06;5032331;28;20052;-55
2021/12/04 11:24:39;;;;;;;13.85;6.38;;;;;;;9.95;49.64;100065.19;5031384;28;20053;-55
2021/12/04 11:45:18;;;;;;;7.25;4.80;;;;;;;9.41;49.18;100062.97;5029339;28;20728;-79
2021/12/04 11:48:04;;;;;;;15.95;5.60;;;;;;;9.28;49.38;100077.53;5030595;28;20068;-77
2021/12/04 11:50:52;;;;;;;8.35;5.45;;;;;;;9.24;48.90;100067.66;5026973;28;20049;-78
2021/12/04 11:53:37;;;;;;;10.43;5.97;;;;;;;9.31;48.50;100060.59;5009163;28;20052;-77
2021/12/04 11:56:24;;;;;;;;;;;;;;;9.17;49.22;100062.72;5021792;28;20048;-78
2021/12/04 11:59:09;;;;;;;11.02;6.95;;;;;;;9.36;48.74;100065.06;5015108;28;19917;-78
2021/12/04 12:02:00;;;;;;;9.98;5.65;;;;;;;9.42;48.45;100053.72;5023633;28;20048;-77
2021/12/04 12:04:50;;;;;;;10.35;5.80;;;;;;;9.63;47.68;100042.16;5014144;28;20049;-78
2021/12/04 12:07:35;;;;;;;11.88;6.25;;;;;;;9.59;47.62;100042.00;5021143;28;20052;-78
2021/12/04 12:10:21;;;;;;;11.27;5.85;;;;;;;9.55;47.93;100045.72;5028013;28;20052;-77
2021/12/04 12:13:06;;;;;;;9.90;6.65;;;;;;;8.90;49.38;100035.94;5034981;28;20049;-77
2021/12/04 12:16:19;;;;;;;13.00;6.20;;;;;;;8.40;51.10;100022.88;5015141;28;20068;-77
2021/12/04 12:19:10;;;;;;;11.90;6.10;;;;;;;8.10;51.93;100038.09;5034463;28;20062;-80
2021/12/04 12:22:19;;;;;;;10.80;6.22;;;;;;;7.84;51.64;100039.09;5027970;28;20060;-79
2021/12/04 12:37:27;;;;;;;9.85;6.55;;;;;;;8.20;51.86;100014.50;5027418;28;20056;-79
2021/12/04 12:40:12;;;;;;;10.18;6.32;;;;;;;8.00;51.95;100005.09;5038537;28;20044;-79
2021/12/04 12:43:09;;;;;;;14.27;6.25;;;;;;;7.81;53.07;100005.38;5032317;28;20049;-78
2021/12/04 12:45:56;;;;;;;9.30;6.10;;;;;;;7.64;52.80;99986.34;5024548;28;20049;-79
2021/12/04 12:48:51;;;;;;;8.82;6.00;;;;;;;8.01;52.22;99974.19;5023104;28;20041;-79
2021/12/04 12:51:36;;;;;;;9.68;6.00;;;;;;;7.89;52.83;99974.00;5026271;28;20410;-79
2021/12/04 12:54:33;;;;;;;15.73;6.75;;;;;;;7.66;52.88;99968.72;5032309;28;20052;-79
2021/12/04 12:57:20;;;;;;;12.85;7.18;;;;;;;7.28;55.09;99964.88;5040650;28;20505;-79
2021/12/04 13:12:22;;;;;;;10.23;6.88;;;;;;;8.06;52.69;99938.84;5035213;28;20041;-80
2021/12/04 13:15:10;;;;;;;13.48;6.82;;;;;;;7.62;54.86;99943.38;5023698;28;20052;-81
2021/12/04 13:17:55;;;;;;;14.43;7.90;;;;;;;7.29;56.09;99934.03;5040473;28;20757;-80
2021/12/04 13:20:40;;;;;;;10.35;6.45;;;;;;;7.31;55.64;99937.25;5012167;28;20044;-79
2021/12/04 13:23:26;;;;;;;14.00;5.90;;;;;;;7.42;56.04;99938.53;5044716;28;20040;-80
2021/12/04 13:26:12;;;;;;;10.57;6.53;;;;;;;7.52;56.23;99938.25;5028584;28;20057;-79
2021/12/04 13:29:00;;;;;;;11.90;7.70;;;;;;;7.81;55.12;99923.38;5033652;28;20064;-80
2021/12/04 13:31:45;;;;;;;11.15;7.47;;;;;;;7.36;56.58;99907.34;5046411;28;20048;-79
2021/12/04 13:34:31;;;;;;;15.60;8.27;;;;;;;7.50;57.06;99905.31;5029847;28;20048;-79
2021/12/04 13:37:26;;;;;;;11.38;7.65;;;;;;;7.23;58.39;99913.66;5014615;28;20044;-80
2021/12/04 13:40:15;;;;;;;8.10;5.25;;;;;;;7.69;57.74;99910.44;5042191;28;20433;-79
2021/12/04 13:42:59;;;;;;;13.93;8.07;;;;;;;7.58;58.21;99909.94;5033888;28;20053;-80
2021/12/04 13:45:45;;;;;;;29.02;8.05;;;;;;;7.39;59.02;99917.53;5029727;28;20053;-79
2021/12/04 13:48:34;;;;;;;15.55;7.25;;;;;;;6.77;60.69;99914.06;5025639;28;20056;-80
2021/12/04 13:51:18;;;;;;;16.55;8.75;;;;;;;7.14;59.59;99904.72;5030273;28;20047;-79
2021/12/04 13:54:04;;;;;;;7.80;5.18;;;;;;;6.88;60.17;99894.59;5019824;28;20057;-81
2021/12/04 13:56:50;;;;;;;11.18;7.05;;;;;;;6.87;60.58;99897.59;5020604;28;20053;-79
2021/12/04 13:59:34;;;;;;;13.98;6.55;;;;;;;6.79;61.52;99899.16;5051693;28;20040;-79
2021/12/04 14:02:22;;;;;;;9.63;6.38;;;;;;;6.93;61.31;99887.44;5044480;28;20048;-79
2021/12/04 14:05:08;;;;;;;13.32;8.30;;;;;;;6.90;61.86;99904.28;5045236;28;20052;-82
2021/12/04 14:07:56;;;;;;;16.88;7.85;;;;;;;7.08;60.37;99908.66;5034411;28;20763;-79
2021/12/04 14:10:44;;;;;;;15.48;8.38;;;;;;;6.83;60.38;99902.81;5032307;28;20422;-79
2021/12/04 14:13:29;;;;;;;16.02;9.02;;;;;;;6.75;61.34;99897.38;5034025;28;20040;-79
2021/12/04 14:16:13;;;;;;;16.10;8.23;;;;;;;6.81;60.72;99902.31;5033494;28;20068;-80
2021/12/04 14:18:58;;;;;;;12.90;7.18;;;;;;;6.90;60.19;99904.28;5044581;28;20295;-79
2021/12/04 14:22:00;;;;;;;8.95;5.50;;;;;;;6.97;59.01;99901.94;5038087;28;20509;-78
2021/12/04 14:24:59;;;;;;;11.90;7.55;;;;;;;6.97;59.41;99915.44;5034876;28;20041;-79
2021/12/04 14:27:44;;;;;;;11.32;7.05;;;;;;;6.92;59.64;99905.56;5027712;28;20068;-78
2021/12/04 14:30:32;;;;;;;16.00;8.88;;;;;;;6.82;60.00;99909.31;5019772;28;20521;-79
2021/12/04 14:33:21;;;;;;;17.73;7.78;;;;;;;6.75;59.64;99909.00;5028841;28;20056;-79
2021/12/04 14:36:06;;;;;;;13.88;8.15;;;;;;;6.59;60.32;99913.19;5014965;28;20532;-79
2021/12/04 14:38:51;;;;;;;14.70;8.43;;;;;;;6.56;61.47;99921.06;5026926;28;20045;-79
2021/12/04 14:41:35;;;;;;;12.73;7.28;;;;;;;6.72;60.81;99915.00;5031975;28;20418;-80
2021/12/04 14:44:21;;;;;;;13.57;6.60;;;;;;;6.79;61.17;99918.06;5049305;28;20044;-79
2021/12/04 14:47:07;;;;;;;17.40;7.45;;;;;;;6.60;61.90;99917.47;5032217;28;20064;-80
2021/12/04 14:49:59;;;;;;;14.90;8.05;;;;;;;6.69;61.59;99926.44;5021413;28;20048;-79
2021/12/04 14:52:49;;;;;;;13.32;8.45;;;;;;;6.46;61.70;99922.13;5033032;28;20044;-79
2021/12/04 14:55:38;;;;;;;13.98;8.82;;;;;;;6.70;61.22;99909.13;5019900;28;20485;-80
2021/12/04 14:58:25;;;;;;;11.82;7.70;;;;;;;6.49;61.97;99910.72;5017740;28;20637;-81
2021/12/04 15:01:13;;;;;;;10.82;7.68;;;;;;;6.58;62.12;99914.28;5032828;28;20103;-78
2021/12/04 15:04:02;;;;;;;13.77;8.27;;;;;;;6.59;61.45;99909.69;5031573;28;20048;-79
2021/12/04 15:06:47;;;;;;;19.08;7.93;;;;;;;6.48;62.63;99906.44;5031230;28;20045;-80
2021/12/04 15:09:31;;;;;;;11.38;6.82;;;;;;;6.43;61.49;99914.66;5033995;28;20056;-79
2021/12/04 15:12:28;;;;;;;8.63;5.97;;;;;;;6.34;62.68;99920.00;5032912;28;20057;-80
2021/12/04 15:15:13;;;;;;;14.65;8.50;;;;;;;6.27;63.49;99913.41;5031324;28;20048;-80
2021/12/04 15:18:02;;;;;;;12.90;7.80;;;;;;;6.40;63.77;99915.25;5045687;28;20048;-79
2021/12/04 15:21:07;;;;;;;13.82;8.05;;;;;;;6.25;63.19;99918.31;5034018;28;20040;-77
2021/12/04 15:23:54;;;;;;;12.23;7.82;;;;;;;6.17;64.59;99908.25;5026853;28;20037;-79
2021/12/04 15:26:42;;;;;;;14.50;8.18;;;;;;;6.45;64.73;99907.03;5014738;28;20048;-81
2021/12/04 15:29:29;;;;;;;14.63;7.93;;;;;;;6.51;62.79;99905.00;5034309;28;20059;-80
2021/12/04 15:32:22;;;;;;;11.60;7.05;;;;;;;6.71;62.12;99904.50;5042369;28;20053;-81
2021/12/04 15:35:26;;;;;;;12.63;7.45;;;;;;;6.81;61.23;99902.31;5015339;28;20040;-79
2021/12/04 15:38:18;;;;;;;14.13;8.38;;;;;;;6.83;61.79;99894.72;5026412;28;20416;-80
2021/12/04 15:47:10;;;;;;;;;;;;;;;7.14;61.40;99900.09;5027952;28;20060;-78
2021/12/04 15:53:20;;;;;;;12.95;7.82;;;;;;;6.50;61.47;99900.72;5035518;28;20053;-81
2021/12/04 15:56:05;;;;;;;11.32;7.45;;;;;;;6.70;63.14;99905.63;5023361;28;20048;-79
2021/12/04 15:58:50;;;;;;;12.07;6.40;;;;;;;6.98;61.70;99908.94;5031497;28;20039;-79
2021/12/04 16:01:35;;;;;;;10.57;7.10;;;;;;;7.14;61.93;99904.72;5029702;28;20041;-81
2021/12/04 16:04:26;;;;;;;10.57;6.63;;;;;;;6.80;61.48;99902.66;5034979;28;20509;-80
2021/12/04 16:07:23;;;;;;;13.45;8.07;;;;;;;6.92;61.80;99900.16;5032262;28;20283;-79
2021/12/04 16:10:13;;;;;;;15.93;8.75;;;;;;;7.04;61.26;99902.28;5026359;28;20414;-80
2021/12/04 16:12:58;;;;;;;14.45;7.82;;;;;;;7.12;61.84;99882.59;5034793;28;20064;-81
2021/12/04 16:15:43;;;;;;;15.40;5.88;;;;;;;7.09;61.72;99865.09;5024488;28;20060;-80
2021/12/04 16:18:29;;;;;;;11.48;7.22;;;;;;;7.21;60.81;99869.94;5013757;28;20509;-80
2021/12/04 16:21:14;;;;;;;11.05;6.15;;;;;;;7.28;61.53;99875.66;5033176;28;20048;-80
2021/12/04 16:23:59;;;;;;;12.43;6.35;;;;;;;7.27;61.19;99871.34;5034733;28;20068;-81
2021/12/04 16:26:45;;;;;;;12.57;6.25;;;;;;;7.27;61.36;99864.03;5042751;28;20052;-81
2021/12/04 16:29:36;;;;;;;15.50;7.90;;;;;;;7.32;61.77;99853.06;5026092;28;20529;-81